Terminal Aerodrome Forecast
Issued by NWS Sterling, VA

Home | Current Version | Previous Version | Text Only | Print | Product List | Glossary On
Versions: 1 2 3 4 5 6 7 8 9 10 11 12 13 14 15
126
FTUS41 KLWX 271739
TAFCHO
TAF
KCHO 271739Z 2718/2818 30013KT P6SM VCTS SCT070CB
     FM272100 26007KT P6SM SCT080
     FM280200 32004KT P6SM SKC=

USA.gov is the U.S. government's official web portal to all federal, state and local government web resources and services.